createdAt,value
2018-06-28T00:04:27.708Z,5.23
2018-06-28T00:09:30.964Z,6.37
2018-06-28T00:14:33.987Z,5.30
2018-06-28T00:19:37.422Z,4.80
2018-06-28T00:24:40.709Z,5.60
2018-06-28T00:29:43.975Z,6.03
2018-06-28T00:34:47.232Z,4.77
2018-06-28T00:39:50.525Z,5.60
2018-06-28T00:44:53.802Z,4.90
2018-06-28T00:49:57.093Z,4.90
2018-06-28T00:55:00.337Z,5.20
2018-06-28T01:00:03.642Z,5.83
2018-06-28T01:05:06.908Z,5.33
2018-06-28T01:10:10.163Z,5.27
2018-06-28T01:15:13.433Z,5.23
2018-06-28T01:20:16.696Z,4.87
2018-06-28T01:25:19.996Z,4.77
2018-06-28T01:30:23.268Z,5.03
2018-06-28T01:35:26.531Z,5.73
2018-06-28T01:40:29.820Z,5.07
2018-06-28T01:45:33.102Z,5.37
2018-06-28T01:50:36.353Z,6.13
2018-06-28T01:55:39.629Z,5.47
2018-06-28T02:00:42.976Z,6.03
2018-06-28T02:05:46.845Z,6.80
2018-06-28T02:10:50.161Z,6.37
2018-06-28T02:15:53.432Z,6.17
2018-06-28T02:20:56.692Z,7.17
2018-06-28T02:25:59.952Z,6.53
2018-06-28T02:31:03.188Z,6.53
2018-06-28T02:36:06.467Z,6.77
2018-06-28T02:41:09.745Z,6.87
2018-06-28T02:46:12.980Z,6.73
2018-06-28T02:51:16.252Z,7.07
2018-06-28T02:56:19.512Z,6.77
2018-06-28T03:01:23.143Z,8.50
2018-06-28T03:06:26.150Z,7.30
2018-06-28T03:11:29.420Z,8.57
2018-06-28T03:16:33.008Z,8.87
2018-06-28T03:21:36.357Z,8.73
2018-06-28T03:26:39.615Z,7.83
2018-06-28T03:31:42.864Z,8.73
2018-06-28T03:36:46.141Z,9.23
2018-06-28T03:41:49.410Z,9.07
2018-06-28T03:46:52.671Z,8.87
2018-06-28T03:51:55.931Z,8.63
2018-06-28T03:56:59.224Z,10.27
2018-06-28T04:02:02.492Z,14.53
2018-06-28T04:07:05.757Z,9.70
2018-06-28T04:12:09.020Z,10.63
2018-06-28T04:17:12.260Z,12.67
2018-06-28T04:22:22.064Z,10.10
2018-06-28T04:27:25.620Z,9.47
2018-06-28T04:32:28.856Z,9.70
2018-06-28T04:37:32.112Z,9.47
2018-06-28T04:42:35.369Z,10.30
2018-06-28T04:47:38.620Z,10.17
2018-06-28T04:52:41.607Z,10.90
2018-06-28T04:57:44.880Z,10.13
2018-06-28T05:02:48.156Z,10.53
2018-06-28T05:07:51.448Z,10.37
2018-06-28T05:12:54.725Z,11.10
2018-06-28T05:17:58.807Z,10.47
2018-06-28T05:23:01.806Z,10.70
2018-06-28T05:28:05.093Z,13.40
2018-06-28T05:33:08.367Z,11.87
2018-06-28T05:38:11.621Z,12.47
2018-06-28T05:43:14.899Z,11.80
2018-06-28T05:48:18.169Z,10.63
2018-06-28T05:53:21.179Z,11.47
2018-06-28T05:58:24.466Z,11.13
2018-06-28T06:03:27.722Z,11.10
2018-06-28T06:08:30.988Z,11.53
2018-06-28T06:13:34.271Z,12.73
2018-06-28T06:18:37.520Z,13.73
2018-06-28T06:23:40.808Z,12.43
2018-06-28T06:28:44.197Z,11.33
2018-06-28T06:33:47.505Z,11.20
2018-06-28T06:38:50.774Z,13.60
2018-06-28T06:43:54.039Z,11.77
2018-06-28T06:48:57.412Z,12.17
2018-06-28T06:54:00.668Z,11.20
2018-06-28T06:59:04.027Z,15.53
2018-06-28T07:04:07.331Z,11.43
2018-06-28T07:09:12.207Z,11.00
2018-06-28T07:14:16.945Z,12.07
2018-06-28T07:19:20.339Z,11.33
2018-06-28T07:24:23.610Z,12.30
2018-06-28T07:29:27.124Z,10.77
2018-06-28T07:34:30.521Z,9.60
2018-06-28T07:39:33.826Z,10.87
2018-06-28T07:44:36.949Z,11.40
2018-06-28T07:49:40.224Z,10.13
2018-06-28T07:54:43.916Z,13.70
2018-06-28T07:59:47.197Z,11.50
2018-06-28T08:04:50.695Z,11.27
2018-06-28T08:09:53.955Z,11.93
2018-06-28T08:14:57.240Z,11.73
2018-06-28T08:20:00.528Z,15.17
2018-06-28T08:25:03.619Z,12.10
2018-06-28T08:30:06.905Z,11.23
2018-06-28T08:35:10.787Z,11.77
2018-06-28T08:40:14.132Z,10.83
2018-06-28T08:45:17.398Z,10.50
2018-06-28T08:50:20.969Z,12.90
2018-06-28T08:55:23.980Z,10.93
2018-06-28T09:00:26.988Z,12.67
2018-06-28T09:05:30.266Z,13.27
2018-06-28T09:10:33.516Z,12.03
2018-06-28T09:15:36.779Z,12.03
2018-06-28T09:20:40.327Z,12.50
2018-06-28T09:25:43.335Z,11.50
2018-06-28T09:30:46.593Z,12.13
2018-06-28T09:35:50.728Z,12.63
2018-06-28T09:40:53.960Z,12.87
2018-06-28T09:45:57.238Z,12.37
2018-06-28T09:51:00.246Z,14.83
2018-06-28T09:56:03.537Z,12.37
2018-06-28T10:01:07.703Z,12.47
2018-06-28T10:06:11.760Z,14.80
2018-06-28T10:11:15.274Z,14.50
2018-06-28T10:16:18.785Z,13.03
2018-06-28T10:21:21.800Z,12.97
2018-06-28T10:26:24.951Z,13.53
2018-06-28T10:31:28.978Z,12.40
2018-06-28T10:36:32.304Z,12.73
2018-06-28T10:41:36.198Z,15.33
2018-06-28T10:46:39.511Z,13.20
2018-06-28T10:51:42.840Z,13.77
2018-06-28T10:56:46.117Z,12.23
2018-06-28T11:02:52.755Z,12.93
2018-06-28T11:07:56.070Z,12.57
2018-06-28T11:12:59.356Z,11.80
2018-06-28T11:18:02.682Z,13.50
2018-06-28T11:23:06.972Z,13.50
2018-06-28T11:28:10.235Z,18.47
2018-06-28T11:33:15.028Z,14.03
2018-06-28T11:38:18.833Z,15.87
2018-06-28T11:43:22.424Z,17.13
2018-06-28T11:48:26.377Z,15.10
2018-06-28T11:53:30.571Z,15.10
2018-06-28T11:58:35.773Z,14.10
2018-06-28T12:03:41.718Z,14.27
2018-06-28T12:08:47.311Z,14.57
2018-06-28T12:13:52.389Z,13.20
2018-06-28T12:18:57.133Z,11.10
2018-06-28T12:24:02.005Z,13.57
2018-06-28T12:29:05.312Z,11.63
2018-06-28T12:34:13.982Z,11.23
2018-06-28T12:39:18.943Z,10.10
2018-06-28T12:44:23.448Z,10.70
2018-06-28T12:49:27.193Z,10.33
2018-06-28T12:54:31.875Z,9.97
2018-06-28T12:59:36.430Z,8.03
2018-06-28T13:04:40.403Z,8.33
2018-06-28T13:09:43.658Z,8.83
2018-06-28T13:14:47.545Z,7.40
2018-06-28T13:19:51.832Z,8.00
2018-06-28T13:24:55.706Z,9.60
2018-06-28T13:29:59.866Z,9.70
2018-06-28T13:35:03.654Z,9.13
2018-06-28T13:40:07.375Z,10.33
2018-06-28T13:45:11.637Z,10.97
2018-06-28T13:50:14.932Z,11.23
2018-06-28T13:55:19.652Z,9.40
2018-06-28T14:00:23.374Z,12.40
2018-06-28T14:05:27.329Z,9.53
2018-06-28T14:10:31.055Z,9.13
2018-06-28T14:15:34.737Z,10.00
2018-06-28T14:20:38.694Z,10.40
2018-06-28T14:25:42.533Z,11.97
2018-06-28T14:30:46.487Z,13.40
2018-06-28T14:35:50.932Z,12.80
2018-06-28T14:40:57.409Z,11.70
2018-06-28T14:46:00.775Z,11.57
2018-06-28T14:51:04.521Z,11.73
2018-06-28T14:56:08.296Z,10.57
2018-06-28T15:01:12.208Z,11.60
2018-06-28T15:06:15.686Z,13.07
2018-06-28T15:11:19.999Z,13.60
2018-06-28T15:16:24.024Z,11.23
2018-06-28T15:21:28.118Z,10.70
2018-06-28T15:26:33.630Z,11.93
2018-06-28T15:31:37.203Z,13.20
2018-06-28T15:36:40.716Z,13.47
2018-06-28T15:41:44.728Z,12.63
2018-06-28T15:46:48.575Z,10.77
2018-06-28T15:51:51.818Z,10.80
2018-06-28T15:56:55.583Z,11.27
2018-06-28T16:01:59.262Z,11.70
2018-06-28T16:07:03.047Z,11.83
2018-06-28T16:12:06.935Z,10.83
2018-06-28T16:17:10.317Z,13.67
2018-06-28T16:22:14.441Z,11.60
2018-06-28T16:27:18.937Z,9.83
2018-06-28T16:32:23.046Z,11.17
2018-06-28T16:37:27.226Z,11.30
2018-06-28T16:42:31.877Z,11.53
2018-06-28T16:47:35.668Z,12.93
2018-06-28T16:52:39.618Z,14.07
2018-06-28T16:57:44.531Z,13.17
2018-06-28T17:02:49.196Z,13.93
2018-06-28T17:07:53.862Z,12.33
2018-06-28T17:12:57.552Z,13.83
2018-06-28T17:18:01.764Z,12.37
2018-06-28T17:23:06.073Z,13.13
2018-06-28T17:28:10.005Z,15.40
2018-06-28T17:33:14.724Z,14.97
2018-06-28T17:38:18.293Z,15.57
2018-06-28T17:43:24.352Z,14.83
2018-06-28T17:48:30.473Z,17.97
2018-06-28T17:53:38.693Z,18.27
2018-06-28T17:58:42.000Z,17.07
2018-06-28T18:03:45.271Z,15.30
2018-06-28T18:08:48.567Z,19.80
2018-06-28T18:13:51.854Z,21.97
2018-06-28T18:18:55.168Z,16.87
2018-06-28T18:23:58.462Z,13.27
2018-06-28T18:29:01.768Z,13.00
2018-06-28T18:34:05.076Z,12.63
2018-06-28T18:39:09.983Z,12.97
2018-06-28T18:44:13.798Z,12.50
2018-06-28T18:49:17.084Z,12.50
2018-06-28T18:54:20.627Z,15.57
2018-06-28T18:59:23.956Z,13.30
2018-06-28T19:04:27.767Z,13.17
2018-06-28T19:09:36.304Z,15.30
2018-06-28T19:14:44.899Z,15.77
2018-06-28T19:19:48.167Z,14.80
2018-06-28T19:24:51.829Z,16.70
2018-06-28T19:30:00.416Z,14.00
2018-06-28T19:35:04.386Z,16.37
2018-06-28T19:40:14.000Z,16.90
2018-06-28T19:45:17.369Z,16.47
2018-06-28T19:50:26.023Z,21.23
2018-06-28T19:55:29.726Z,17.87
2018-06-28T20:00:38.253Z,16.63
2018-06-28T20:05:41.558Z,16.03
2018-06-28T20:10:44.832Z,15.97
2018-06-28T20:15:56.744Z,15.57
2018-06-28T20:21:01.312Z,15.67
2018-06-28T20:28:16.650Z,16.10
2018-06-28T20:33:25.319Z,16.37
2018-06-28T20:38:31.131Z,14.93
2018-06-28T20:43:34.590Z,13.83
2018-06-28T20:48:38.131Z,16.10
2018-06-28T20:53:42.170Z,13.47
2018-06-28T20:58:46.838Z,14.43
2018-06-28T21:03:50.548Z,13.63
2018-06-28T21:08:54.251Z,11.90
2018-06-28T21:13:57.942Z,14.00
2018-06-28T21:19:01.537Z,14.80
2018-06-28T21:24:05.216Z,13.43
2018-06-28T21:29:09.304Z,12.83
2018-06-28T21:34:12.995Z,12.17
2018-06-28T21:39:16.870Z,11.50
2018-06-28T21:44:20.578Z,12.37
2018-06-28T21:49:24.497Z,15.60
2018-06-28T21:54:28.063Z,14.77
2018-06-28T21:59:31.525Z,11.73
2018-06-28T22:04:34.793Z,12.40
2018-06-28T22:09:39.165Z,13.70
2018-06-28T22:14:42.440Z,12.50
2018-06-28T22:19:45.735Z,13.43
2018-06-28T22:24:48.950Z,12.50
2018-06-28T22:29:52.211Z,11.67
2018-06-28T22:34:55.448Z,12.33
2018-06-28T22:39:58.824Z,14.07
2018-06-28T22:45:02.089Z,15.10
2018-06-28T22:50:05.576Z,13.03
2018-06-28T22:55:09.258Z,12.43
2018-06-28T23:00:14.922Z,13.77
2018-06-28T23:05:18.232Z,14.23
2018-06-28T23:10:21.640Z,14.60
2018-06-28T23:15:25.013Z,13.73
2018-06-28T23:20:28.524Z,14.30
2018-06-28T23:25:31.560Z,13.97
2018-06-28T23:30:34.888Z,15.43
2018-06-28T23:35:38.154Z,15.27
2018-06-28T23:40:41.420Z,14.63
2018-06-28T23:45:44.717Z,14.03
2018-06-28T23:50:48.009Z,14.00
2018-06-28T23:55:51.487Z,14.57
